Terminal Aerodrome Forecast
Issued by NWS Sterling, VA

Current Version | Previous Version | Text Only | Print | Product List | Glossary Off
Versions: 1 2 3 4 5 6 7 8 9 10 11 12 13 14 15 16 17 18 19 20 21 22

000
FTUS41 KLWX 301400 AAA
TAFDCA
TAF AMD
KDCA 301458Z 3015/3112 34005KT P6SM SCT250
     FM301700 27006KT P6SM BKN050
     FM302200 22006KT P6SM SCT050
     FM310100 19006KT P6SM BKN090
     FM310700 19005KT P6SM SCT090=

USA.gov is the U.S. government's official web portal to all federal, state and local government web resources and services.